sensor_id;sensor_type;location;lat;lon;timestamp;P1;durP1;ratioP1;P2;durP2;ratioP2
10295;SDS011;5193;51.032;6.356;2023-05-24T00:00:28;11.30;;;2.80;;
10295;SDS011;5193;51.032;6.356;2023-05-24T00:02:54;10.27;;;2.40;;
10295;SDS011;5193;51.032;6.356;2023-05-24T00:05:21;10.23;;;2.40;;
10295;SDS011;5193;51.032;6.356;2023-05-24T00:07:47;8.40;;;2.07;;
10295;SDS011;5193;51.032;6.356;2023-05-24T00:10:13;6.27;;;2.00;;
10295;SDS011;5193;51.032;6.356;2023-05-24T00:12:39;11.00;;;2.00;;
10295;SDS011;5193;51.032;6.356;2023-05-24T00:15:05;9.33;;;2.17;;
10295;SDS011;5193;51.032;6.356;2023-05-24T00:17:31;10.03;;;2.27;;
10295;SDS011;5193;51.032;6.356;2023-05-24T00:19:58;10.07;;;2.43;;
10295;SDS011;5193;51.032;6.356;2023-05-24T00:22:24;8.97;;;1.97;;
10295;SDS011;5193;51.032;6.356;2023-05-24T00:24:50;9.07;;;2.27;;
10295;SDS011;5193;51.032;6.356;2023-05-24T00:27:15;7.47;;;2.57;;
10295;SDS011;5193;51.032;6.356;2023-05-24T00:29:41;11.67;;;2.53;;
10295;SDS011;5193;51.032;6.356;2023-05-24T00:32:06;10.67;;;2.70;;
10295;SDS011;5193;51.032;6.356;2023-05-24T00:34:32;5.97;;;2.03;;
10295;SDS011;5193;51.032;6.356;2023-05-24T00:36:57;7.20;;;2.00;;
10295;SDS011;5193;51.032;6.356;2023-05-24T00:39:24;9.83;;;2.63;;
10295;SDS011;5193;51.032;6.356;2023-05-24T00:41:50;13.33;;;2.80;;
10295;SDS011;5193;51.032;6.356;2023-05-24T00:44:16;10.77;;;2.47;;
10295;SDS011;5193;51.032;6.356;2023-05-24T00:46:41;8.97;;;2.17;;
10295;SDS011;5193;51.032;6.356;2023-05-24T00:49:07;9.20;;;2.20;;
10295;SDS011;5193;51.032;6.356;2023-05-24T00:51:34;11.20;;;2.43;;
10295;SDS011;5193;51.032;6.356;2023-05-24T00:54:01;10.70;;;1.77;;
10295;SDS011;5193;51.032;6.356;2023-05-24T00:56:26;8.30;;;2.10;;
10295;SDS011;5193;51.032;6.356;2023-05-24T00:58:52;6.53;;;2.23;;
10295;SDS011;5193;51.032;6.356;2023-05-24T01:01:21;13.27;;;2.27;;
10295;SDS011;5193;51.032;6.356;2023-05-24T01:03:53;8.73;;;2.40;;
10295;SDS011;5193;51.032;6.356;2023-05-24T01:06:19;10.10;;;2.50;;
10295;SDS011;5193;51.032;6.356;2023-05-24T01:11:30;17.03;;;2.93;;
10295;SDS011;5193;51.032;6.356;2023-05-24T01:14:11;7.33;;;2.67;;
10295;SDS011;5193;51.032;6.356;2023-05-24T01:16:46;8.37;;;2.20;;
10295;SDS011;5193;51.032;6.356;2023-05-24T01:24:52;7.57;;;2.50;;
10295;SDS011;5193;51.032;6.356;2023-05-24T01:27:22;13.70;;;2.40;;
10295;SDS011;5193;51.032;6.356;2023-05-24T01:29:48;12.63;;;3.10;;
10295;SDS011;5193;51.032;6.356;2023-05-24T01:32:20;9.07;;;2.40;;
10295;SDS011;5193;51.032;6.356;2023-05-24T01:34:46;10.03;;;2.80;;
10295;SDS011;5193;51.032;6.356;2023-05-24T01:37:11;7.33;;;2.47;;
10295;SDS011;5193;51.032;6.356;2023-05-24T01:39:37;8.57;;;2.43;;
10295;SDS011;5193;51.032;6.356;2023-05-24T01:42:25;8.30;;;2.37;;
10295;SDS011;5193;51.032;6.356;2023-05-24T01:50:59;10.13;;;1.80;;
10295;SDS011;5193;51.032;6.356;2023-05-24T01:53:31;4.00;;;1.50;;
10295;SDS011;5193;51.032;6.356;2023-05-24T01:56:03;4.40;;;1.73;;
10295;SDS011;5193;51.032;6.356;2023-05-24T01:58:30;7.80;;;2.43;;
10295;SDS011;5193;51.032;6.356;2023-05-24T02:00:57;10.77;;;2.17;;
10295;SDS011;5193;51.032;6.356;2023-05-24T02:03:23;7.67;;;2.47;;
10295;SDS011;5193;51.032;6.356;2023-05-24T02:05:49;10.87;;;2.07;;
10295;SDS011;5193;51.032;6.356;2023-05-24T02:08:15;7.53;;;2.23;;
10295;SDS011;5193;51.032;6.356;2023-05-24T02:10:41;9.57;;;2.13;;
10295;SDS011;5193;51.032;6.356;2023-05-24T02:13:07;4.77;;;1.60;;
10295;SDS011;5193;51.032;6.356;2023-05-24T02:15:33;6.67;;;2.20;;
10295;SDS011;5193;51.032;6.356;2023-05-24T02:18:02;7.63;;;1.87;;
10295;SDS011;5193;51.032;6.356;2023-05-24T02:20:28;6.27;;;2.10;;
10295;SDS011;5193;51.032;6.356;2023-05-24T02:23:00;5.17;;;1.77;;
10295;SDS011;5193;51.032;6.356;2023-05-24T02:25:26;6.43;;;1.90;;
10295;SDS011;5193;51.032;6.356;2023-05-24T02:27:52;3.70;;;1.80;;
10295;SDS011;5193;51.032;6.356;2023-05-24T02:30:17;8.53;;;1.80;;
10295;SDS011;5193;51.032;6.356;2023-05-24T02:32:43;7.33;;;2.47;;
10295;SDS011;5193;51.032;6.356;2023-05-24T02:35:09;7.23;;;2.30;;
10295;SDS011;5193;51.032;6.356;2023-05-24T02:37:34;6.23;;;2.00;;
10295;SDS011;5193;51.032;6.356;2023-05-24T02:40:00;5.70;;;1.97;;
10295;SDS011;5193;51.032;6.356;2023-05-24T02:42:25;3.97;;;1.67;;
10295;SDS011;5193;51.032;6.356;2023-05-24T02:44:51;8.57;;;1.90;;
10295;SDS011;5193;51.032;6.356;2023-05-24T02:47:17;5.93;;;1.67;;
10295;SDS011;5193;51.032;6.356;2023-05-24T02:49:43;7.37;;;1.80;;
10295;SDS011;5193;51.032;6.356;2023-05-24T02:52:08;7.07;;;2.10;;
10295;SDS011;5193;51.032;6.356;2023-05-24T02:54:34;4.67;;;1.43;;
10295;SDS011;5193;51.032;6.356;2023-05-24T02:57:00;5.27;;;1.87;;
10295;SDS011;5193;51.032;6.356;2023-05-24T02:59:26;5.03;;;2.07;;
10295;SDS011;5193;51.032;6.356;2023-05-24T03:01:52;4.30;;;1.80;;
10295;SDS011;5193;51.032;6.356;2023-05-24T03:04:18;8.30;;;1.87;;
10295;SDS011;5193;51.032;6.356;2023-05-24T03:06:43;4.40;;;1.60;;
10295;SDS011;5193;51.032;6.356;2023-05-24T03:09:09;4.63;;;1.63;;
10295;SDS011;5193;51.032;6.356;2023-05-24T03:11:35;6.50;;;1.73;;
10295;SDS011;5193;51.032;6.356;2023-05-24T03:14:00;6.07;;;1.50;;
10295;SDS011;5193;51.032;6.356;2023-05-24T03:16:26;4.50;;;1.60;;
10295;SDS011;5193;51.032;6.356;2023-05-24T03:18:51;3.87;;;1.60;;
10295;SDS011;5193;51.032;6.356;2023-05-24T03:21:19;4.50;;;1.60;;
10295;SDS011;5193;51.032;6.356;2023-05-24T03:23:45;8.10;;;2.20;;
10295;SDS011;5193;51.032;6.356;2023-05-24T03:26:11;6.17;;;1.70;;
10295;SDS011;5193;51.032;6.356;2023-05-24T03:28:39;4.10;;;1.70;;
10295;SDS011;5193;51.032;6.356;2023-05-24T03:31:05;3.73;;;1.53;;
10295;SDS011;5193;51.032;6.356;2023-05-24T03:33:31;5.07;;;2.03;;
10295;SDS011;5193;51.032;6.356;2023-05-24T03:35:57;9.20;;;2.27;;
10295;SDS011;5193;51.032;6.356;2023-05-24T03:38:23;10.33;;;2.27;;
10295;SDS011;5193;51.032;6.356;2023-05-24T03:40:48;9.43;;;3.13;;
10295;SDS011;5193;51.032;6.356;2023-05-24T03:43:14;4.47;;;2.10;;
10295;SDS011;5193;51.032;6.356;2023-05-24T03:45:42;11.63;;;3.47;;
10295;SDS011;5193;51.032;6.356;2023-05-24T03:48:07;8.30;;;2.63;;
10295;SDS011;5193;51.032;6.356;2023-05-24T03:50:33;8.03;;;2.50;;
10295;SDS011;5193;51.032;6.356;2023-05-24T03:52:59;10.47;;;3.00;;
10295;SDS011;5193;51.032;6.356;2023-05-24T03:55:24;14.67;;;2.33;;
10295;SDS011;5193;51.032;6.356;2023-05-24T03:57:50;7.90;;;2.33;;
10295;SDS011;5193;51.032;6.356;2023-05-24T04:00:15;4.40;;;1.93;;
10295;SDS011;5193;51.032;6.356;2023-05-24T04:02:42;7.70;;;2.60;;
10295;SDS011;5193;51.032;6.356;2023-05-24T04:05:07;5.73;;;1.80;;
10295;SDS011;5193;51.032;6.356;2023-05-24T04:07:37;9.63;;;2.10;;
10295;SDS011;5193;51.032;6.356;2023-05-24T04:10:06;7.10;;;2.30;;
10295;SDS011;5193;51.032;6.356;2023-05-24T04:12:32;6.23;;;2.90;;
10295;SDS011;5193;51.032;6.356;2023-05-24T04:14:58;10.63;;;2.57;;
10295;SDS011;5193;51.032;6.356;2023-05-24T04:17:25;12.47;;;2.57;;
10295;SDS011;5193;51.032;6.356;2023-05-24T04:19:51;11.10;;;2.90;;
10295;SDS011;5193;51.032;6.356;2023-05-24T04:22:17;9.07;;;2.70;;
10295;SDS011;5193;51.032;6.356;2023-05-24T04:24:43;11.40;;;3.03;;
10295;SDS011;5193;51.032;6.356;2023-05-24T04:27:09;9.60;;;2.43;;
10295;SDS011;5193;51.032;6.356;2023-05-24T04:29:35;15.50;;;3.03;;
10295;SDS011;5193;51.032;6.356;2023-05-24T04:32:04;10.17;;;2.60;;
10295;SDS011;5193;51.032;6.356;2023-05-24T04:34:30;9.33;;;3.00;;
10295;SDS011;5193;51.032;6.356;2023-05-24T04:36:59;15.10;;;3.10;;
10295;SDS011;5193;51.032;6.356;2023-05-24T04:39:26;16.20;;;2.87;;
10295;SDS011;5193;51.032;6.356;2023-05-24T04:41:52;6.73;;;2.50;;
10295;SDS011;5193;51.032;6.356;2023-05-24T04:44:19;11.30;;;2.90;;
10295;SDS011;5193;51.032;6.356;2023-05-24T04:46:44;8.60;;;2.50;;
10295;SDS011;5193;51.032;6.356;2023-05-24T04:49:10;9.97;;;3.00;;
10295;SDS011;5193;51.032;6.356;2023-05-24T04:51:36;11.00;;;2.70;;
10295;SDS011;5193;51.032;6.356;2023-05-24T04:54:05;8.93;;;2.97;;
10295;SDS011;5193;51.032;6.356;2023-05-24T04:56:36;11.97;;;3.20;;
10295;SDS011;5193;51.032;6.356;2023-05-24T04:59:06;8.03;;;2.63;;
10295;SDS011;5193;51.032;6.356;2023-05-24T05:01:32;9.77;;;3.47;;
10295;SDS011;5193;51.032;6.356;2023-05-24T05:03:58;14.70;;;3.27;;
10295;SDS011;5193;51.032;6.356;2023-05-24T05:06:23;11.90;;;3.67;;
10295;SDS011;5193;51.032;6.356;2023-05-24T05:08:50;10.83;;;3.60;;
10295;SDS011;5193;51.032;6.356;2023-05-24T05:11:18;12.40;;;3.40;;
10295;SDS011;5193;51.032;6.356;2023-05-24T05:13:44;9.43;;;3.27;;
10295;SDS011;5193;51.032;6.356;2023-05-24T05:16:10;14.50;;;4.07;;
10295;SDS011;5193;51.032;6.356;2023-05-24T05:18:35;10.77;;;3.57;;
10295;SDS011;5193;51.032;6.356;2023-05-24T05:21:01;10.73;;;3.70;;
10295;SDS011;5193;51.032;6.356;2023-05-24T05:23:28;8.43;;;3.20;;
10295;SDS011;5193;51.032;6.356;2023-05-24T05:25:54;8.63;;;3.27;;
10295;SDS011;5193;51.032;6.356;2023-05-24T05:28:20;12.50;;;3.63;;
10295;SDS011;5193;51.032;6.356;2023-05-24T05:30:46;18.47;;;3.70;;
10295;SDS011;5193;51.032;6.356;2023-05-24T05:33:11;17.17;;;4.23;;
10295;SDS011;5193;51.032;6.356;2023-05-24T05:35:37;11.67;;;3.67;;
10295;SDS011;5193;51.032;6.356;2023-05-24T05:38:02;17.80;;;4.37;;
10295;SDS011;5193;51.032;6.356;2023-05-24T05:40:28;15.93;;;4.30;;
10295;SDS011;5193;51.032;6.356;2023-05-24T05:42:53;18.53;;;4.40;;
10295;SDS011;5193;51.032;6.356;2023-05-24T05:45:19;14.90;;;4.60;;
10295;SDS011;5193;51.032;6.356;2023-05-24T05:47:45;16.73;;;3.97;;
10295;SDS011;5193;51.032;6.356;2023-05-24T05:50:11;13.30;;;4.23;;
10295;SDS011;5193;51.032;6.356;2023-05-24T05:52:36;15.50;;;4.77;;
10295;SDS011;5193;51.032;6.356;2023-05-24T05:55:02;16.30;;;4.30;;
10295;SDS011;5193;51.032;6.356;2023-05-24T05:57:27;13.37;;;4.70;;
10295;SDS011;5193;51.032;6.356;2023-05-24T05:59:53;19.60;;;4.70;;
10295;SDS011;5193;51.032;6.356;2023-05-24T06:02:18;23.30;;;4.73;;
10295;SDS011;5193;51.032;6.356;2023-05-24T06:04:46;10.50;;;3.97;;
10295;SDS011;5193;51.032;6.356;2023-05-24T06:07:12;13.60;;;4.83;;
10295;SDS011;5193;51.032;6.356;2023-05-24T06:09:38;15.40;;;4.67;;
10295;SDS011;5193;51.032;6.356;2023-05-24T06:12:03;20.00;;;4.80;;
10295;SDS011;5193;51.032;6.356;2023-05-24T06:14:29;16.67;;;4.17;;
10295;SDS011;5193;51.032;6.356;2023-05-24T06:16:56;15.50;;;4.57;;
10295;SDS011;5193;51.032;6.356;2023-05-24T06:19:22;18.50;;;4.53;;
10295;SDS011;5193;51.032;6.356;2023-05-24T06:21:47;21.07;;;4.93;;
10295;SDS011;5193;51.032;6.356;2023-05-24T06:24:14;16.47;;;4.20;;
10295;SDS011;5193;51.032;6.356;2023-05-24T06:26:44;18.03;;;4.37;;
10295;SDS011;5193;51.032;6.356;2023-05-24T06:29:10;17.60;;;4.17;;
10295;SDS011;5193;51.032;6.356;2023-05-24T06:31:36;18.00;;;4.83;;
10295;SDS011;5193;51.032;6.356;2023-05-24T06:34:01;12.33;;;4.47;;
10295;SDS011;5193;51.032;6.356;2023-05-24T06:36:27;21.20;;;5.70;;
10295;SDS011;5193;51.032;6.356;2023-05-24T06:38:53;18.73;;;4.80;;
10295;SDS011;5193;51.032;6.356;2023-05-24T06:41:18;14.73;;;4.37;;
10295;SDS011;5193;51.032;6.356;2023-05-24T06:43:44;17.40;;;4.77;;
10295;SDS011;5193;51.032;6.356;2023-05-24T06:46:10;12.33;;;4.17;;
10295;SDS011;5193;51.032;6.356;2023-05-24T06:48:36;14.30;;;4.73;;
10295;SDS011;5193;51.032;6.356;2023-05-24T06:51:01;11.80;;;4.00;;
10295;SDS011;5193;51.032;6.356;2023-05-24T06:53:28;12.10;;;3.90;;
10295;SDS011;5193;51.032;6.356;2023-05-24T06:55:53;16.37;;;4.70;;
10295;SDS011;5193;51.032;6.356;2023-05-24T06:58:19;15.10;;;3.90;;
10295;SDS011;5193;51.032;6.356;2023-05-24T07:00:45;15.17;;;4.50;;
10295;SDS011;5193;51.032;6.356;2023-05-24T07:03:11;13.53;;;4.20;;
10295;SDS011;5193;51.032;6.356;2023-05-24T07:05:37;20.83;;;4.00;;
10295;SDS011;5193;51.032;6.356;2023-05-24T07:08:03;19.47;;;4.87;;
10295;SDS011;5193;51.032;6.356;2023-05-24T07:10:28;16.40;;;4.17;;
10295;SDS011;5193;51.032;6.356;2023-05-24T07:12:54;19.27;;;4.77;;
10295;SDS011;5193;51.032;6.356;2023-05-24T07:15:20;16.57;;;4.43;;
10295;SDS011;5193;51.032;6.356;2023-05-24T07:17:45;16.13;;;4.47;;
10295;SDS011;5193;51.032;6.356;2023-05-24T07:20:12;18.93;;;4.70;;
10295;SDS011;5193;51.032;6.356;2023-05-24T07:22:38;14.53;;;4.20;;
10295;SDS011;5193;51.032;6.356;2023-05-24T07:25:05;18.67;;;3.77;;
10295;SDS011;5193;51.032;6.356;2023-05-24T07:27:31;15.20;;;4.30;;
10295;SDS011;5193;51.032;6.356;2023-05-24T07:29:57;18.13;;;4.43;;
10295;SDS011;5193;51.032;6.356;2023-05-24T07:32:22;17.63;;;4.10;;
10295;SDS011;5193;51.032;6.356;2023-05-24T07:34:48;19.97;;;4.40;;
10295;SDS011;5193;51.032;6.356;2023-05-24T07:37:14;16.00;;;4.13;;
10295;SDS011;5193;51.032;6.356;2023-05-24T07:39:41;15.23;;;3.87;;
10295;SDS011;5193;51.032;6.356;2023-05-24T07:42:07;11.23;;;3.70;;
10295;SDS011;5193;51.032;6.356;2023-05-24T07:44:33;11.73;;;3.10;;
10295;SDS011;5193;51.032;6.356;2023-05-24T07:46:59;18.23;;;4.17;;
10295;SDS011;5193;51.032;6.356;2023-05-24T07:49:26;19.10;;;3.70;;
10295;SDS011;5193;51.032;6.356;2023-05-24T07:51:52;17.63;;;3.27;;
10295;SDS011;5193;51.032;6.356;2023-05-24T07:54:20;15.73;;;4.10;;
10295;SDS011;5193;51.032;6.356;2023-05-24T07:56:47;13.00;;;3.80;;
10295;SDS011;5193;51.032;6.356;2023-05-24T07:59:13;18.73;;;4.30;;
10295;SDS011;5193;51.032;6.356;2023-05-24T08:01:39;18.50;;;4.30;;
10295;SDS011;5193;51.032;6.356;2023-05-24T08:04:05;13.80;;;3.87;;
10295;SDS011;5193;51.032;6.356;2023-05-24T08:06:32;16.30;;;3.93;;
10295;SDS011;5193;51.032;6.356;2023-05-24T08:08:58;13.90;;;3.83;;
10295;SDS011;5193;51.032;6.356;2023-05-24T08:11:24;13.23;;;3.63;;
10295;SDS011;5193;51.032;6.356;2023-05-24T08:13:50;12.57;;;3.60;;
10295;SDS011;5193;51.032;6.356;2023-05-24T08:16:16;15.97;;;5.03;;
10295;SDS011;5193;51.032;6.356;2023-05-24T08:18:42;11.03;;;3.90;;
10295;SDS011;5193;51.032;6.356;2023-05-24T08:21:08;14.77;;;3.93;;
10295;SDS011;5193;51.032;6.356;2023-05-24T08:23:34;12.03;;;3.93;;
10295;SDS011;5193;51.032;6.356;2023-05-24T08:26:00;19.77;;;4.30;;
10295;SDS011;5193;51.032;6.356;2023-05-24T08:28:25;14.90;;;3.80;;
10295;SDS011;5193;51.032;6.356;2023-05-24T08:30:52;14.00;;;3.67;;
10295;SDS011;5193;51.032;6.356;2023-05-24T08:33:17;16.53;;;3.57;;
10295;SDS011;5193;51.032;6.356;2023-05-24T08:35:43;13.57;;;3.93;;
10295;SDS011;5193;51.032;6.356;2023-05-24T08:38:09;11.43;;;3.80;;
10295;SDS011;5193;51.032;6.356;2023-05-24T08:40:34;9.83;;;3.23;;
10295;SDS011;5193;51.032;6.356;2023-05-24T08:43:00;19.43;;;4.20;;
10295;SDS011;5193;51.032;6.356;2023-05-24T08:45:28;16.80;;;4.07;;
10295;SDS011;5193;51.032;6.356;2023-05-24T08:47:55;14.10;;;3.90;;
10295;SDS011;5193;51.032;6.356;2023-05-24T08:50:22;11.40;;;3.80;;
10295;SDS011;5193;51.032;6.356;2023-05-24T08:52:48;12.23;;;3.63;;
10295;SDS011;5193;51.032;6.356;2023-05-24T08:55:15;16.13;;;4.03;;
10295;SDS011;5193;51.032;6.356;2023-05-24T08:57:41;13.97;;;3.90;;
10295;SDS011;5193;51.032;6.356;2023-05-24T09:00:10;18.23;;;4.20;;
10295;SDS011;5193;51.032;6.356;2023-05-24T09:02:39;16.50;;;3.93;;
10295;SDS011;5193;51.032;6.356;2023-05-24T09:05:13;17.10;;;4.40;;
10295;SDS011;5193;51.032;6.356;2023-05-24T09:07:41;16.10;;;4.37;;
10295;SDS011;5193;51.032;6.356;2023-05-24T09:10:08;13.10;;;3.90;;
10295;SDS011;5193;51.032;6.356;2023-05-24T09:12:37;12.27;;;3.73;;
10295;SDS011;5193;51.032;6.356;2023-05-24T09:15:05;10.43;;;3.47;;
10295;SDS011;5193;51.032;6.356;2023-05-24T09:17:31;15.53;;;3.63;;
10295;SDS011;5193;51.032;6.356;2023-05-24T09:19:59;11.90;;;3.33;;
10295;SDS011;5193;51.032;6.356;2023-05-24T09:22:26;10.00;;;3.17;;
10295;SDS011;5193;51.032;6.356;2023-05-24T09:24:59;16.50;;;4.87;;
10295;SDS011;5193;51.032;6.356;2023-05-24T09:27:25;11.30;;;3.50;;
10295;SDS011;5193;51.032;6.356;2023-05-24T09:29:51;10.73;;;3.47;;
10295;SDS011;5193;51.032;6.356;2023-05-24T09:32:20;16.57;;;4.07;;
10295;SDS011;5193;51.032;6.356;2023-05-24T09:34:48;12.10;;;3.80;;
10295;SDS011;5193;51.032;6.356;2023-05-24T09:37:16;12.30;;;4.10;;
10295;SDS011;5193;51.032;6.356;2023-05-24T09:39:43;12.53;;;3.73;;
10295;SDS011;5193;51.032;6.356;2023-05-24T09:42:15;10.60;;;3.63;;
10295;SDS011;5193;51.032;6.356;2023-05-24T09:44:44;12.03;;;3.60;;
10295;SDS011;5193;51.032;6.356;2023-05-24T09:47:11;16.60;;;3.73;;
10295;SDS011;5193;51.032;6.356;2023-05-24T09:49:38;14.67;;;4.10;;
10295;SDS011;5193;51.032;6.356;2023-05-24T09:52:04;15.47;;;4.03;;
10295;SDS011;5193;51.032;6.356;2023-05-24T09:54:33;15.37;;;3.80;;
10295;SDS011;5193;51.032;6.356;2023-05-24T09:57:00;13.13;;;3.93;;
10295;SDS011;5193;51.032;6.356;2023-05-24T09:59:29;11.17;;;4.40;;
10295;SDS011;5193;51.032;6.356;2023-05-24T10:02:07;13.67;;;3.73;;
10295;SDS011;5193;51.032;6.356;2023-05-24T10:04:37;11.37;;;4.13;;
10295;SDS011;5193;51.032;6.356;2023-05-24T10:07:06;15.07;;;3.90;;
10295;SDS011;5193;51.032;6.356;2023-05-24T10:09:33;14.83;;;3.87;;
10295;SDS011;5193;51.032;6.356;2023-05-24T10:12:02;8.17;;;3.43;;
10295;SDS011;5193;51.032;6.356;2023-05-24T10:14:34;10.23;;;3.63;;
10295;SDS011;5193;51.032;6.356;2023-05-24T10:17:02;7.50;;;3.60;;
10295;SDS011;5193;51.032;6.356;2023-05-24T10:19:29;12.10;;;3.90;;
10295;SDS011;5193;51.032;6.356;2023-05-24T10:22:04;10.27;;;3.23;;
10295;SDS011;5193;51.032;6.356;2023-05-24T10:24:34;9.63;;;3.40;;
10295;SDS011;5193;51.032;6.356;2023-05-24T10:27:03;11.60;;;3.60;;
10295;SDS011;5193;51.032;6.356;2023-05-24T10:29:47;12.43;;;3.77;;
10295;SDS011;5193;51.032;6.356;2023-05-24T10:32:31;16.03;;;3.53;;
10295;SDS011;5193;51.032;6.356;2023-05-24T10:34:59;10.07;;;3.57;;
10295;SDS011;5193;51.032;6.356;2023-05-24T10:37:26;10.40;;;3.63;;
10295;SDS011;5193;51.032;6.356;2023-05-24T10:39:52;13.33;;;3.93;;
10295;SDS011;5193;51.032;6.356;2023-05-24T10:42:18;12.50;;;3.33;;
10295;SDS011;5193;51.032;6.356;2023-05-24T10:44:43;15.37;;;4.20;;
10295;SDS011;5193;51.032;6.356;2023-05-24T10:47:10;13.07;;;3.47;;
10295;SDS011;5193;51.032;6.356;2023-05-24T10:49:49;12.83;;;3.70;;
10295;SDS011;5193;51.032;6.356;2023-05-24T10:52:17;18.33;;;4.33;;
10295;SDS011;5193;51.032;6.356;2023-05-24T10:55:25;14.40;;;3.60;;
10295;SDS011;5193;51.032;6.356;2023-05-24T10:57:33;13.43;;;3.67;;
10295;SDS011;5193;51.032;6.356;2023-05-24T11:02:47;14.60;;;4.23;;
10295;SDS011;5193;51.032;6.356;2023-05-24T11:05:13;16.67;;;4.23;;
10295;SDS011;5193;51.032;6.356;2023-05-24T11:07:39;12.00;;;3.77;;
10295;SDS011;5193;51.032;6.356;2023-05-24T11:10:08;15.07;;;4.23;;
10295;SDS011;5193;51.032;6.356;2023-05-24T11:12:41;13.77;;;3.73;;
10295;SDS011;5193;51.032;6.356;2023-05-24T11:15:09;11.60;;;4.13;;
10295;SDS011;5193;51.032;6.356;2023-05-24T11:20:38;11.90;;;3.93;;
10295;SDS011;5193;51.032;6.356;2023-05-24T11:23:05;11.27;;;3.53;;
10295;SDS011;5193;51.032;6.356;2023-05-24T11:25:33;12.30;;;3.87;;
10295;SDS011;5193;51.032;6.356;2023-05-24T11:28:02;15.20;;;4.20;;
10295;SDS011;5193;51.032;6.356;2023-05-24T11:30:39;11.00;;;3.60;;
10295;SDS011;5193;51.032;6.356;2023-05-24T11:33:12;12.40;;;4.03;;
10295;SDS011;5193;51.032;6.356;2023-05-24T11:35:39;8.50;;;3.13;;
10295;SDS011;5193;51.032;6.356;2023-05-24T11:38:12;10.27;;;3.50;;
10295;SDS011;5193;51.032;6.356;2023-05-24T11:40:40;12.87;;;3.83;;
10295;SDS011;5193;51.032;6.356;2023-05-24T11:43:18;12.50;;;4.30;;
10295;SDS011;5193;51.032;6.356;2023-05-24T11:45:45;9.17;;;3.50;;
10295;SDS011;5193;51.032;6.356;2023-05-24T11:48:12;11.63;;;3.80;;
10295;SDS011;5193;51.032;6.356;2023-05-24T11:50:42;8.03;;;4.03;;
10295;SDS011;5193;51.032;6.356;2023-05-24T11:53:09;7.50;;;3.23;;
10295;SDS011;5193;51.032;6.356;2023-05-24T11:55:39;8.83;;;3.17;;
10295;SDS011;5193;51.032;6.356;2023-05-24T11:58:09;10.30;;;3.67;;
10295;SDS011;5193;51.032;6.356;2023-05-24T12:00:41;8.57;;;2.90;;
10295;SDS011;5193;51.032;6.356;2023-05-24T12:03:08;10.67;;;3.93;;
10295;SDS011;5193;51.032;6.356;2023-05-24T12:05:34;10.30;;;3.33;;
10295;SDS011;5193;51.032;6.356;2023-05-24T12:08:05;10.87;;;4.07;;
10295;SDS011;5193;51.032;6.356;2023-05-24T12:10:35;7.37;;;3.17;;
10295;SDS011;5193;51.032;6.356;2023-05-24T12:13:05;9.50;;;3.17;;
10295;SDS011;5193;51.032;6.356;2023-05-24T12:15:41;8.33;;;3.10;;
10295;SDS011;5193;51.032;6.356;2023-05-24T12:18:16;11.20;;;3.17;;
10295;SDS011;5193;51.032;6.356;2023-05-24T12:20:47;10.33;;;2.80;;
10295;SDS011;5193;51.032;6.356;2023-05-24T12:23:13;11.13;;;2.93;;
10295;SDS011;5193;51.032;6.356;2023-05-24T12:25:39;8.40;;;3.13;;
10295;SDS011;5193;51.032;6.356;2023-05-24T12:28:04;6.03;;;2.40;;
10295;SDS011;5193;51.032;6.356;2023-05-24T12:30:30;8.27;;;2.97;;
10295;SDS011;5193;51.032;6.356;2023-05-24T12:32:55;7.43;;;2.03;;
10295;SDS011;5193;51.032;6.356;2023-05-24T12:35:22;8.17;;;2.20;;
10295;SDS011;5193;51.032;6.356;2023-05-24T12:37:48;6.17;;;2.53;;
10295;SDS011;5193;51.032;6.356;2023-05-24T12:40:17;6.47;;;2.60;;
10295;SDS011;5193;51.032;6.356;2023-05-24T12:42:45;5.97;;;2.60;;
10295;SDS011;5193;51.032;6.356;2023-05-24T12:45:15;7.20;;;2.73;;
10295;SDS011;5193;51.032;6.356;2023-05-24T12:47:53;7.80;;;2.97;;
10295;SDS011;5193;51.032;6.356;2023-05-24T12:50:20;7.43;;;2.70;;
10295;SDS011;5193;51.032;6.356;2023-05-24T12:52:47;4.80;;;2.07;;
10295;SDS011;5193;51.032;6.356;2023-05-24T12:55:17;7.13;;;2.70;;
10295;SDS011;5193;51.032;6.356;2023-05-24T12:57:44;6.97;;;2.33;;
10295;SDS011;5193;51.032;6.356;2023-05-24T13:02:47;8.40;;;2.30;;
10295;SDS011;5193;51.032;6.356;2023-05-24T13:05:13;6.13;;;2.93;;
10295;SDS011;5193;51.032;6.356;2023-05-24T13:07:39;6.53;;;2.57;;
10295;SDS011;5193;51.032;6.356;2023-05-24T13:10:07;7.67;;;3.17;;
10295;SDS011;5193;51.032;6.356;2023-05-24T13:12:32;6.23;;;2.90;;
10295;SDS011;5193;51.032;6.356;2023-05-24T13:14:58;5.07;;;2.33;;
10295;SDS011;5193;51.032;6.356;2023-05-24T13:17:24;8.63;;;2.80;;
10295;SDS011;5193;51.032;6.356;2023-05-24T13:19:50;8.93;;;2.77;;
10295;SDS011;5193;51.032;6.356;2023-05-24T13:22:15;4.80;;;2.20;;
10295;SDS011;5193;51.032;6.356;2023-05-24T13:24:41;6.67;;;2.93;;
10295;SDS011;5193;51.032;6.356;2023-05-24T13:27:07;7.10;;;2.57;;
10295;SDS011;5193;51.032;6.356;2023-05-24T13:29:33;11.20;;;2.90;;
10295;SDS011;5193;51.032;6.356;2023-05-24T13:31:58;7.80;;;2.53;;
10295;SDS011;5193;51.032;6.356;2023-05-24T13:34:24;6.60;;;2.63;;
10295;SDS011;5193;51.032;6.356;2023-05-24T13:36:50;9.50;;;3.20;;
10295;SDS011;5193;51.032;6.356;2023-05-24T13:39:16;10.43;;;3.40;;
10295;SDS011;5193;51.032;6.356;2023-05-24T13:41:43;8.97;;;3.23;;
10295;SDS011;5193;51.032;6.356;2023-05-24T13:44:09;6.03;;;3.00;;
10295;SDS011;5193;51.032;6.356;2023-05-24T13:46:36;9.77;;;3.40;;
10295;SDS011;5193;51.032;6.356;2023-05-24T13:49:02;9.13;;;3.00;;
10295;SDS011;5193;51.032;6.356;2023-05-24T13:51:28;11.47;;;3.90;;
10295;SDS011;5193;51.032;6.356;2023-05-24T13:53:54;8.97;;;3.37;;
10295;SDS011;5193;51.032;6.356;2023-05-24T13:56:20;8.40;;;3.50;;
10295;SDS011;5193;51.032;6.356;2023-05-24T13:58:48;9.07;;;3.43;;
10295;SDS011;5193;51.032;6.356;2023-05-24T14:01:13;10.67;;;3.20;;
10295;SDS011;5193;51.032;6.356;2023-05-24T14:03:39;9.93;;;3.30;;
10295;SDS011;5193;51.032;6.356;2023-05-24T14:06:05;8.43;;;3.13;;
10295;SDS011;5193;51.032;6.356;2023-05-24T14:08:31;6.83;;;2.70;;
10295;SDS011;5193;51.032;6.356;2023-05-24T14:10:57;7.17;;;2.70;;
10295;SDS011;5193;51.032;6.356;2023-05-24T14:13:23;8.80;;;2.87;;
10295;SDS011;5193;51.032;6.356;2023-05-24T14:15:49;7.47;;;2.87;;
10295;SDS011;5193;51.032;6.356;2023-05-24T14:18:14;10.33;;;2.90;;
10295;SDS011;5193;51.032;6.356;2023-05-24T14:20:40;9.47;;;3.20;;
10295;SDS011;5193;51.032;6.356;2023-05-24T14:23:06;9.03;;;3.27;;
10295;SDS011;5193;51.032;6.356;2023-05-24T14:25:32;10.40;;;3.20;;
10295;SDS011;5193;51.032;6.356;2023-05-24T14:27:58;8.00;;;3.03;;
10295;SDS011;5193;51.032;6.356;2023-05-24T14:30:24;7.07;;;3.13;;
10295;SDS011;5193;51.032;6.356;2023-05-24T14:32:50;7.37;;;2.73;;
10295;SDS011;5193;51.032;6.356;2023-05-24T14:35:16;9.53;;;3.17;;
10295;SDS011;5193;51.032;6.356;2023-05-24T14:37:42;8.30;;;2.97;;
10295;SDS011;5193;51.032;6.356;2023-05-24T14:40:08;9.47;;;3.13;;
10295;SDS011;5193;51.032;6.356;2023-05-24T14:42:34;6.43;;;2.87;;
10295;SDS011;5193;51.032;6.356;2023-05-24T14:45:00;6.03;;;3.00;;
10295;SDS011;5193;51.032;6.356;2023-05-24T14:47:25;7.80;;;2.70;;
10295;SDS011;5193;51.032;6.356;2023-05-24T14:49:52;5.67;;;3.07;;
10295;SDS011;5193;51.032;6.356;2023-05-24T14:52:18;12.17;;;2.77;;
10295;SDS011;5193;51.032;6.356;2023-05-24T14:54:43;7.60;;;2.93;;
10295;SDS011;5193;51.032;6.356;2023-05-24T14:57:09;5.30;;;2.60;;
10295;SDS011;5193;51.032;6.356;2023-05-24T14:59:36;9.27;;;3.10;;
10295;SDS011;5193;51.032;6.356;2023-05-24T15:02:02;6.67;;;2.63;;
10295;SDS011;5193;51.032;6.356;2023-05-24T15:04:27;10.30;;;3.00;;
10295;SDS011;5193;51.032;6.356;2023-05-24T15:06:53;8.57;;;3.30;;
10295;SDS011;5193;51.032;6.356;2023-05-24T15:09:19;8.17;;;2.80;;
10295;SDS011;5193;51.032;6.356;2023-05-24T15:11:45;7.60;;;2.93;;
10295;SDS011;5193;51.032;6.356;2023-05-24T15:14:11;8.30;;;2.90;;